sensor_id;sensor_type;location;lat;lon;timestamp;pressure;altitude;pressure_sealevel;temperature;humidity
56604;BME280;42486;47.478;19.036;2023-03-25T00:02:15;99314.31;;;15.02;69.65
56604;BME280;42486;47.478;19.036;2023-03-25T00:05:20;99316.59;;;15.05;67.82
56604;BME280;42486;47.478;19.036;2023-03-25T00:08:25;99312.50;;;15.02;67.88
56604;BME280;42486;47.478;19.036;2023-03-25T00:11:32;99317.94;;;15.01;68.13
56604;BME280;42486;47.478;19.036;2023-03-25T00:14:36;99317.75;;;15.02;68.15
56604;BME280;42486;47.478;19.036;2023-03-25T00:17:41;99314.50;;;15.00;67.80
56604;BME280;42486;47.478;19.036;2023-03-25T00:20:44;99305.09;;;15.06;67.33
56604;BME280;42486;47.478;19.036;2023-03-25T00:23:53;99310.03;;;15.09;66.88
56604;BME280;42486;47.478;19.036;2023-03-25T00:26:56;99320.38;;;15.10;66.61
56604;BME280;42486;47.478;19.036;2023-03-25T00:29:59;99319.91;;;15.07;67.01
56604;BME280;42486;47.478;19.036;2023-03-25T00:33:02;99313.00;;;15.06;66.77
56604;BME280;42486;47.478;19.036;2023-03-25T00:36:05;99323.19;;;15.09;66.75
56604;BME280;42486;47.478;19.036;2023-03-25T00:39:09;99318.38;;;15.20;66.18
56604;BME280;42486;47.478;19.036;2023-03-25T00:42:15;99320.34;;;15.27;65.53
56604;BME280;42486;47.478;19.036;2023-03-25T00:45:18;99319.66;;;15.33;65.32
56604;BME280;42486;47.478;19.036;2023-03-25T00:48:22;99317.50;;;15.36;65.36
56604;BME280;42486;47.478;19.036;2023-03-25T00:51:26;99315.66;;;15.45;65.44
56604;BME280;42486;47.478;19.036;2023-03-25T00:54:29;99315.84;;;15.44;65.95
56604;BME280;42486;47.478;19.036;2023-03-25T00:57:36;99308.28;;;15.49;66.10
56604;BME280;42486;47.478;19.036;2023-03-25T01:00:39;99309.56;;;15.53;66.37
56604;BME280;42486;47.478;19.036;2023-03-25T01:03:42;99311.06;;;15.47;67.61
56604;BME280;42486;47.478;19.036;2023-03-25T01:06:45;99308.78;;;15.44;68.59
56604;BME280;42486;47.478;19.036;2023-03-25T01:09:54;99306.00;;;15.37;69.27
56604;BME280;42486;47.478;19.036;2023-03-25T01:12:59;99298.31;;;15.28;71.05
56604;BME280;42486;47.478;19.036;2023-03-25T01:16:05;99298.31;;;15.19;72.47
56604;BME280;42486;47.478;19.036;2023-03-25T01:19:08;99305.59;;;15.09;73.67
56604;BME280;42486;47.478;19.036;2023-03-25T01:22:11;99296.38;;;15.05;74.37
56604;BME280;42486;47.478;19.036;2023-03-25T01:25:15;99298.69;;;14.92;75.33
56604;BME280;42486;47.478;19.036;2023-03-25T01:28:18;99303.16;;;14.91;75.89
56604;BME280;42486;47.478;19.036;2023-03-25T01:31:22;99308.59;;;14.90;76.43
56604;BME280;42486;47.478;19.036;2023-03-25T01:34:30;99301.69;;;14.81;77.69
56604;BME280;42486;47.478;19.036;2023-03-25T01:37:35;99306.28;;;14.70;80.00
56604;BME280;42486;47.478;19.036;2023-03-25T01:40:38;99303.19;;;14.59;81.89
56604;BME280;42486;47.478;19.036;2023-03-25T01:43:41;99299.72;;;14.50;83.27
56604;BME280;42486;47.478;19.036;2023-03-25T01:46:44;99302.63;;;14.39;85.13
56604;BME280;42486;47.478;19.036;2023-03-25T01:49:50;99309.22;;;14.35;86.67
56604;BME280;42486;47.478;19.036;2023-03-25T01:52:53;99315.75;;;14.22;87.99
56604;BME280;42486;47.478;19.036;2023-03-25T01:55:59;99312.44;;;14.12;89.08
56604;BME280;42486;47.478;19.036;2023-03-25T01:59:04;99320.84;;;14.07;89.32
56604;BME280;42486;47.478;19.036;2023-03-25T02:02:10;99325.56;;;14.04;89.94
56604;BME280;42486;47.478;19.036;2023-03-25T02:05:53;99324.59;;;13.97;90.37
56604;BME280;42486;47.478;19.036;2023-03-25T02:08:47;99332.41;;;13.80;92.09
56604;BME280;42486;47.478;19.036;2023-03-25T02:11:51;99328.91;;;13.72;93.61
56604;BME280;42486;47.478;19.036;2023-03-25T02:14:56;99325.75;;;13.52;95.47
56604;BME280;42486;47.478;19.036;2023-03-25T02:18:10;99317.25;;;13.32;97.04
56604;BME280;42486;47.478;19.036;2023-03-25T02:24:42;99305.69;;;13.16;99.45
56604;BME280;42486;47.478;19.036;2023-03-25T02:40:23;99321.25;;;12.48;100.00
56604;BME280;42486;47.478;19.036;2023-03-25T02:43:32;99310.91;;;12.46;100.00
56604;BME280;42486;47.478;19.036;2023-03-25T02:46:37;99301.41;;;12.45;100.00
56604;BME280;42486;47.478;19.036;2023-03-25T02:49:44;99308.81;;;12.50;100.00
56604;BME280;42486;47.478;19.036;2023-03-25T02:52:50;99308.66;;;12.51;100.00
56604;BME280;42486;47.478;19.036;2023-03-25T02:55:53;99303.28;;;12.53;100.00
56604;BME280;42486;47.478;19.036;2023-03-25T02:58:59;99319.00;;;12.53;100.00
56604;BME280;42486;47.478;19.036;2023-03-25T03:02:04;99310.84;;;12.56;100.00
56604;BME280;42486;47.478;19.036;2023-03-25T03:09:06;99315.91;;;12.57;100.00
56604;BME280;42486;47.478;19.036;2023-03-25T03:12:26;99322.81;;;12.59;99.45
56604;BME280;42486;47.478;19.036;2023-03-25T03:15:36;99325.75;;;12.55;100.00
56604;BME280;42486;47.478;19.036;2023-03-25T03:18:50;99320.56;;;12.46;100.00
56604;BME280;42486;47.478;19.036;2023-03-25T03:25:37;99334.47;;;12.28;100.00
56604;BME280;42486;47.478;19.036;2023-03-25T03:29:02;99327.16;;;12.14;100.00
56604;BME280;42486;47.478;19.036;2023-03-25T03:32:25;99326.06;;;11.89;100.00
56604;BME280;42486;47.478;19.036;2023-03-25T03:35:33;99336.59;;;11.42;100.00
56604;BME280;42486;47.478;19.036;2023-03-25T03:38:42;99334.78;;;10.95;100.00
56604;BME280;42486;47.478;19.036;2023-03-25T03:41:48;99330.00;;;10.71;100.00
56604;BME280;42486;47.478;19.036;2023-03-25T03:44:53;99344.03;;;10.61;100.00
56604;BME280;42486;47.478;19.036;2023-03-25T03:47:57;99344.34;;;10.48;100.00
56604;BME280;42486;47.478;19.036;2023-03-25T03:51:02;99357.50;;;10.46;100.00
56604;BME280;42486;47.478;19.036;2023-03-25T03:54:12;99369.75;;;10.46;100.00
56604;BME280;42486;47.478;19.036;2023-03-25T04:00:24;99372.34;;;10.55;100.00
56604;BME280;42486;47.478;19.036;2023-03-25T04:03:35;99372.62;;;10.52;100.00
56604;BME280;42486;47.478;19.036;2023-03-25T04:12:57;99389.66;;;10.37;100.00
56604;BME280;42486;47.478;19.036;2023-03-25T04:16:02;99392.28;;;10.47;100.00
56604;BME280;42486;47.478;19.036;2023-03-25T04:19:05;99390.91;;;10.52;100.00
56604;BME280;42486;47.478;19.036;2023-03-25T04:22:07;99398.75;;;10.52;100.00
56604;BME280;42486;47.478;19.036;2023-03-25T04:25:10;99406.28;;;10.55;100.00
56604;BME280;42486;47.478;19.036;2023-03-25T04:28:13;99412.50;;;10.54;100.00
56604;BME280;42486;47.478;19.036;2023-03-25T04:31:18;99414.91;;;10.27;100.00
56604;BME280;42486;47.478;19.036;2023-03-25T04:34:21;99414.66;;;10.30;100.00
56604;BME280;42486;47.478;19.036;2023-03-25T04:37:23;99423.25;;;10.21;100.00
56604;BME280;42486;47.478;19.036;2023-03-25T04:40:26;99421.41;;;10.32;100.00
56604;BME280;42486;47.478;19.036;2023-03-25T04:43:28;99420.00;;;10.28;100.00
56604;BME280;42486;47.478;19.036;2023-03-25T04:46:30;99423.44;;;10.29;100.00
56604;BME280;42486;47.478;19.036;2023-03-25T04:49:33;99426.28;;;10.26;100.00
56604;BME280;42486;47.478;19.036;2023-03-25T04:52:35;99436.03;;;10.24;100.00
56604;BME280;42486;47.478;19.036;2023-03-25T04:55:39;99432.25;;;10.28;100.00
56604;BME280;42486;47.478;19.036;2023-03-25T04:58:49;99440.53;;;10.43;100.00
56604;BME280;42486;47.478;19.036;2023-03-25T05:01:52;99436.53;;;10.48;100.00
56604;BME280;42486;47.478;19.036;2023-03-25T05:04:55;99448.62;;;10.49;100.00
56604;BME280;42486;47.478;19.036;2023-03-25T05:08:02;99439.59;;;10.53;100.00
56604;BME280;42486;47.478;19.036;2023-03-25T05:11:06;99462.38;;;10.51;100.00
56604;BME280;42486;47.478;19.036;2023-03-25T05:14:08;99457.16;;;10.51;100.00
56604;BME280;42486;47.478;19.036;2023-03-25T05:17:12;99458.38;;;10.47;100.00
56604;BME280;42486;47.478;19.036;2023-03-25T05:20:14;99453.97;;;10.38;100.00
56604;BME280;42486;47.478;19.036;2023-03-25T05:23:17;99464.50;;;10.27;100.00
56604;BME280;42486;47.478;19.036;2023-03-25T05:26:19;99464.25;;;10.30;100.00
56604;BME280;42486;47.478;19.036;2023-03-25T05:29:22;99468.59;;;10.20;100.00
56604;BME280;42486;47.478;19.036;2023-03-25T05:32:25;99456.75;;;10.15;100.00
56604;BME280;42486;47.478;19.036;2023-03-25T05:35:31;99464.50;;;10.27;100.00
56604;BME280;42486;47.478;19.036;2023-03-25T05:38:34;99462.75;;;10.27;100.00
56604;BME280;42486;47.478;19.036;2023-03-25T05:41:38;99457.88;;;10.23;100.00
56604;BME280;42486;47.478;19.036;2023-03-25T05:44:41;99460.94;;;10.28;100.00
56604;BME280;42486;47.478;19.036;2023-03-25T05:47:52;99471.56;;;10.36;100.00
56604;BME280;42486;47.478;19.036;2023-03-25T05:50:58;99462.81;;;10.56;100.00
56604;BME280;42486;47.478;19.036;2023-03-25T05:54:02;99462.97;;;10.65;100.00
56604;BME280;42486;47.478;19.036;2023-03-25T05:57:09;99475.19;;;10.74;100.00
56604;BME280;42486;47.478;19.036;2023-03-25T06:00:12;99471.50;;;10.86;100.00
56604;BME280;42486;47.478;19.036;2023-03-25T06:03:17;99471.78;;;10.93;100.00
56604;BME280;42486;47.478;19.036;2023-03-25T06:06:21;99477.44;;;10.88;100.00
56604;BME280;42486;47.478;19.036;2023-03-25T06:09:26;99473.28;;;10.95;100.00
56604;BME280;42486;47.478;19.036;2023-03-25T06:12:32;99480.31;;;11.05;100.00
56604;BME280;42486;47.478;19.036;2023-03-25T06:15:40;99476.88;;;11.14;100.00
56604;BME280;42486;47.478;19.036;2023-03-25T06:18:43;99483.88;;;11.13;100.00
56604;BME280;42486;47.478;19.036;2023-03-25T06:21:45;99480.88;;;11.18;100.00
56604;BME280;42486;47.478;19.036;2023-03-25T06:24:50;99476.19;;;11.21;100.00
56604;BME280;42486;47.478;19.036;2023-03-25T06:27:53;99480.88;;;11.28;100.00
56604;BME280;42486;47.478;19.036;2023-03-25T06:30:57;99476.59;;;11.27;100.00
56604;BME280;42486;47.478;19.036;2023-03-25T06:34:00;99473.56;;;11.31;100.00
56604;BME280;42486;47.478;19.036;2023-03-25T06:37:03;99479.62;;;11.41;100.00
56604;BME280;42486;47.478;19.036;2023-03-25T06:40:05;99467.75;;;11.47;100.00
56604;BME280;42486;47.478;19.036;2023-03-25T06:43:09;99489.22;;;11.60;100.00
56604;BME280;42486;47.478;19.036;2023-03-25T06:46:12;99486.16;;;11.75;100.00
56604;BME280;42486;47.478;19.036;2023-03-25T06:52:37;99500.59;;;11.88;100.00
56604;BME280;42486;47.478;19.036;2023-03-25T06:55:40;99506.50;;;12.00;100.00
56604;BME280;42486;47.478;19.036;2023-03-25T06:58:43;99505.19;;;12.14;100.00
56604;BME280;42486;47.478;19.036;2023-03-25T07:01:47;99511.03;;;12.36;100.00
56604;BME280;42486;47.478;19.036;2023-03-25T07:04:56;99510.50;;;12.32;97.71
56604;BME280;42486;47.478;19.036;2023-03-25T07:07:59;99507.44;;;12.64;97.87
56604;BME280;42486;47.478;19.036;2023-03-25T07:11:04;99513.78;;;13.07;97.17
56604;BME280;42486;47.478;19.036;2023-03-25T07:14:10;99510.31;;;13.60;93.00
56604;BME280;42486;47.478;19.036;2023-03-25T07:17:14;99507.00;;;15.04;80.78
56604;BME280;42486;47.478;19.036;2023-03-25T07:20:19;99517.66;;;14.94;79.83
56604;BME280;42486;47.478;19.036;2023-03-25T07:23:22;99512.41;;;14.43;85.66
56604;BME280;42486;47.478;19.036;2023-03-25T07:26:25;99524.34;;;14.64;83.86
56604;BME280;42486;47.478;19.036;2023-03-25T07:29:28;99532.16;;;15.06;83.85
56604;BME280;42486;47.478;19.036;2023-03-25T07:32:32;99530.63;;;14.79;82.35
56604;BME280;42486;47.478;19.036;2023-03-25T07:35:35;99535.69;;;14.72;82.16
56604;BME280;42486;47.478;19.036;2023-03-25T07:38:40;99538.94;;;15.41;78.62
56604;BME280;42486;47.478;19.036;2023-03-25T07:41:43;99544.72;;;15.61;78.66
56604;BME280;42486;47.478;19.036;2023-03-25T07:44:49;99549.47;;;15.50;77.04
56604;BME280;42486;47.478;19.036;2023-03-25T07:47:51;99537.38;;;14.73;78.48
56604;BME280;42486;47.478;19.036;2023-03-25T07:50:57;99535.66;;;14.56;80.09
56604;BME280;42486;47.478;19.036;2023-03-25T07:54:00;99536.84;;;14.36;81.56
56604;BME280;42486;47.478;19.036;2023-03-25T07:57:06;99542.16;;;14.52;83.21
56604;BME280;42486;47.478;19.036;2023-03-25T08:00:15;99541.88;;;14.21;80.90
56604;BME280;42486;47.478;19.036;2023-03-25T08:03:20;99536.87;;;14.44;77.06
56604;BME280;42486;47.478;19.036;2023-03-25T08:06:29;99532.56;;;14.35;76.26
56604;BME280;42486;47.478;19.036;2023-03-25T08:09:33;99530.81;;;14.51;76.69
56604;BME280;42486;47.478;19.036;2023-03-25T08:12:39;99539.22;;;14.97;75.45
56604;BME280;42486;47.478;19.036;2023-03-25T08:15:59;99547.16;;;15.47;70.14
56604;BME280;42486;47.478;19.036;2023-03-25T08:19:03;99545.00;;;15.34;69.32
56604;BME280;42486;47.478;19.036;2023-03-25T08:22:06;99548.78;;;15.31;68.97
56604;BME280;42486;47.478;19.036;2023-03-25T08:25:10;99535.47;;;15.16;68.34
56604;BME280;42486;47.478;19.036;2023-03-25T08:28:13;99546.16;;;15.15;68.75
56604;BME280;42486;47.478;19.036;2023-03-25T08:31:19;99543.53;;;15.23;70.45
56604;BME280;42486;47.478;19.036;2023-03-25T08:34:22;99533.34;;;15.36;67.64
56604;BME280;42486;47.478;19.036;2023-03-25T08:37:31;99534.34;;;15.52;67.46
56604;BME280;42486;47.478;19.036;2023-03-25T08:40:36;99534.16;;;15.29;68.04
56604;BME280;42486;47.478;19.036;2023-03-25T08:43:39;99535.97;;;15.53;67.50
56604;BME280;42486;47.478;19.036;2023-03-25T08:46:44;99536.81;;;15.86;66.09
56604;BME280;42486;47.478;19.036;2023-03-25T08:49:47;99531.31;;;16.12;68.27
56604;BME280;42486;47.478;19.036;2023-03-25T08:52:50;99537.13;;;15.99;63.90
56604;BME280;42486;47.478;19.036;2023-03-25T08:55:55;99530.53;;;15.87;65.34
56604;BME280;42486;47.478;19.036;2023-03-25T08:58:58;99534.94;;;16.11;65.28
56604;BME280;42486;47.478;19.036;2023-03-25T09:02:02;99533.38;;;16.41;63.67
56604;BME280;42486;47.478;19.036;2023-03-25T09:05:05;99521.34;;;16.39;63.68
56604;BME280;42486;47.478;19.036;2023-03-25T09:08:09;99528.78;;;16.66;63.04
56604;BME280;42486;47.478;19.036;2023-03-25T09:11:12;99521.97;;;16.80;62.95
56604;BME280;42486;47.478;19.036;2023-03-25T09:14:32;99530.91;;;16.71;64.57
56604;BME280;42486;47.478;19.036;2023-03-25T09:17:35;99529.37;;;16.45;61.52
56604;BME280;42486;47.478;19.036;2023-03-25T09:20:39;99518.97;;;16.04;63.02
56604;BME280;42486;47.478;19.036;2023-03-25T09:23:43;99518.94;;;16.21;62.28
56604;BME280;42486;47.478;19.036;2023-03-25T09:26:46;99534.16;;;15.94;61.89
56604;BME280;42486;47.478;19.036;2023-03-25T09:29:48;99530.28;;;16.21;63.50
56604;BME280;42486;47.478;19.036;2023-03-25T09:32:53;99531.94;;;16.31;63.94
56604;BME280;42486;47.478;19.036;2023-03-25T09:35:56;99529.75;;;16.73;61.58
56604;BME280;42486;47.478;19.036;2023-03-25T09:39:09;99527.31;;;16.64;60.04
56604;BME280;42486;47.478;19.036;2023-03-25T09:42:29;99522.09;;;16.08;61.67
56604;BME280;42486;47.478;19.036;2023-03-25T09:45:38;99516.78;;;16.24;59.27
56604;BME280;42486;47.478;19.036;2023-03-25T09:48:42;99523.00;;;15.76;58.44
56604;BME280;42486;47.478;19.036;2023-03-25T09:51:46;99522.25;;;16.15;58.91
56604;BME280;42486;47.478;19.036;2023-03-25T09:54:52;99529.59;;;16.36;57.39
56604;BME280;42486;47.478;19.036;2023-03-25T09:58:01;99532.97;;;16.52;57.82
56604;BME280;42486;47.478;19.036;2023-03-25T10:07:24;99537.38;;;17.23;57.56
56604;BME280;42486;47.478;19.036;2023-03-25T10:10:35;99533.41;;;17.27;57.32
56604;BME280;42486;47.478;19.036;2023-03-25T10:13:54;99535.03;;;17.89;56.53
56604;BME280;42486;47.478;19.036;2023-03-25T10:26:53;99548.88;;;17.07;54.77
56604;BME280;42486;47.478;19.036;2023-03-25T10:30:00;99539.94;;;16.85;57.14
56604;BME280;42486;47.478;19.036;2023-03-25T10:33:15;99536.63;;;16.43;58.73
56604;BME280;42486;47.478;19.036;2023-03-25T10:36:31;99541.72;;;16.53;58.58
56604;BME280;42486;47.478;19.036;2023-03-25T10:39:35;99543.09;;;16.72;59.36
56604;BME280;42486;47.478;19.036;2023-03-25T10:42:52;99537.28;;;16.45;58.54
56604;BME280;42486;47.478;19.036;2023-03-25T10:49:06;99541.00;;;16.28;60.96
56604;BME280;42486;47.478;19.036;2023-03-25T10:52:12;99538.88;;;16.15;60.16
56604;BME280;42486;47.478;19.036;2023-03-25T10:55:20;99549.44;;;16.15;59.60
56604;BME280;42486;47.478;19.036;2023-03-25T10:58:24;99542.56;;;16.45;58.05
56604;BME280;42486;47.478;19.036;2023-03-25T11:01:45;99541.47;;;16.79;55.57
56604;BME280;42486;47.478;19.036;2023-03-25T11:04:51;99547.66;;;16.94;56.66
56604;BME280;42486;47.478;19.036;2023-03-25T11:07:56;99552.31;;;16.84;54.75
56604;BME280;42486;47.478;19.036;2023-03-25T11:11:00;99551.47;;;17.15;54.70
56604;BME280;42486;47.478;19.036;2023-03-25T11:14:05;99540.62;;;17.33;54.64
56604;BME280;42486;47.478;19.036;2023-03-25T11:17:15;99540.31;;;17.28;53.17
56604;BME280;42486;47.478;19.036;2023-03-25T11:20:24;99537.69;;;17.28;53.67
56604;BME280;42486;47.478;19.036;2023-03-25T11:23:31;99545.78;;;17.03;54.51
56604;BME280;42486;47.478;19.036;2023-03-25T11:26:35;99555.38;;;16.96;55.51
56604;BME280;42486;47.478;19.036;2023-03-25T11:29:39;99555.53;;;16.63;53.95
56604;BME280;42486;47.478;19.036;2023-03-25T11:32:42;99552.78;;;16.88;53.83
56604;BME280;42486;47.478;19.036;2023-03-25T11:35:45;99538.75;;;17.19;52.69
56604;BME280;42486;47.478;19.036;2023-03-25T11:38:51;99540.97;;;17.53;51.92
56604;BME280;42486;47.478;19.036;2023-03-25T11:41:55;99537.38;;;17.46;52.12
56604;BME280;42486;47.478;19.036;2023-03-25T11:44:58;99541.84;;;17.22;50.97
56604;BME280;42486;47.478;19.036;2023-03-25T11:48:08;99548.88;;;16.84;51.25
56604;BME280;42486;47.478;19.036;2023-03-25T11:51:12;99541.28;;;16.72;51.75
56604;BME280;42486;47.478;19.036;2023-03-25T11:54:19;99549.91;;;16.66;51.34
56604;BME280;42486;47.478;19.036;2023-03-25T11:57:23;99551.63;;;16.90;52.26
56604;BME280;42486;47.478;19.036;2023-03-25T12:00:37;99546.41;;;16.74;49.82
56604;BME280;42486;47.478;19.036;2023-03-25T12:03:40;99557.19;;;16.56;49.38
56604;BME280;42486;47.478;19.036;2023-03-25T12:06:54;99559.34;;;16.52;49.78
56604;BME280;42486;47.478;19.036;2023-03-25T12:10:03;99565.66;;;16.83;49.39
56604;BME280;42486;47.478;19.036;2023-03-25T12:13:08;99555.78;;;16.77;48.12
56604;BME280;42486;47.478;19.036;2023-03-25T12:19:28;99544.50;;;16.12;50.16
56604;BME280;42486;47.478;19.036;2023-03-25T12:26:10;99549.09;;;16.10;51.35
56604;BME280;42486;47.478;19.036;2023-03-25T12:29:18;99538.72;;;16.08;50.86
56604;BME280;42486;47.478;19.036;2023-03-25T12:32:47;99541.38;;;16.00;49.84
56604;BME280;42486;47.478;19.036;2023-03-25T12:42:34;99517.19;;;15.97;50.58
56604;BME280;42486;47.478;19.036;2023-03-25T12:45:53;99515.78;;;16.25;49.11
56604;BME280;42486;47.478;19.036;2023-03-25T12:52:31;99497.09;;;16.74;48.81
56604;BME280;42486;47.478;19.036;2023-03-25T12:55:43;99504.94;;;16.60;47.41
56604;BME280;42486;47.478;19.036;2023-03-25T13:05:36;99495.50;;;16.34;48.89
56604;BME280;42486;47.478;19.036;2023-03-25T13:08:44;99500.22;;;16.47;48.68
56604;BME280;42486;47.478;19.036;2023-03-25T13:11:53;99494.44;;;16.51;48.80
56604;BME280;42486;47.478;19.036;2023-03-25T13:21:10;99491.72;;;16.28;47.43
56604;BME280;42486;47.478;19.036;2023-03-25T13:24:16;99487.22;;;15.90;47.40
56604;BME280;42486;47.478;19.036;2023-03-25T13:27:20;99478.81;;;16.02;47.48
56604;BME280;42486;47.478;19.036;2023-03-25T13:30:28;99483.34;;;16.25;48.15
56604;BME280;42486;47.478;19.036;2023-03-25T13:33:35;99492.22;;;16.24;48.53
56604;BME280;42486;47.478;19.036;2023-03-25T13:36:43;99486.84;;;16.48;47.46
56604;BME280;42486;47.478;19.036;2023-03-25T13:40:38;99491.34;;;16.40;48.06
56604;BME280;42486;47.478;19.036;2023-03-25T13:49:51;99486.16;;;16.23;47.87
56604;BME280;42486;47.478;19.036;2023-03-25T13:52:59;99492.25;;;16.16;47.91
56604;BME280;42486;47.478;19.036;2023-03-25T13:59:30;99490.97;;;16.03;46.81
56604;BME280;42486;47.478;19.036;2023-03-25T14:18:31;99493.34;;;15.49;48.34
56604;BME280;42486;47.478;19.036;2023-03-25T14:24:40;99507.19;;;15.59;50.52
56604;BME280;42486;47.478;19.036;2023-03-25T14:27:45;99503.72;;;15.59;48.71
56604;BME280;42486;47.478;19.036;2023-03-25T14:34:27;99493.53;;;15.23;48.13
56604;BME280;42486;47.478;19.036;2023-03-25T14:37:30;99490.91;;;15.15;48.45
56604;BME280;42486;47.478;19.036;2023-03-25T14:44:17;99485.63;;;15.15;49.76
56604;BME280;42486;47.478;19.036;2023-03-25T14:47:29;99490.06;;;15.23;48.52
56604;BME280;42486;47.478;19.036;2023-03-25T14:50:33;99489.59;;;15.19;49.43
56604;BME280;42486;47.478;19.036;2023-03-25T14:53:36;99490.22;;;15.13;49.59
56604;BME280;42486;47.478;19.036;2023-03-25T14:57:22;99493.19;;;15.10;48.83
56604;BME280;42486;47.478;19.036;2023-03-25T15:00:05;99493.19;;;15.18;48.56
56604;BME280;42486;47.478;19.036;2023-03-25T15:03:15;99484.00;;;15.14;48.91
56604;BME280;42486;47.478;19.036;2023-03-25T15:06:28;99482.19;;;15.23;49.03
56604;BME280;42486;47.478;19.036;2023-03-25T15:09:42;99478.41;;;15.25;49.27
56604;BME280;42486;47.478;19.036;2023-03-25T15:12:48;99488.25;;;15.23;47.19
56604;BME280;42486;47.478;19.036;2023-03-25T15:15:53;99490.41;;;15.11;47.62
56604;BME280;42486;47.478;19.036;2023-03-25T15:19:00;99492.53;;;15.00;46.50
56604;BME280;42486;47.478;19.036;2023-03-25T15:25:14;99489.53;;;14.78;48.10
56604;BME280;42486;47.478;19.036;2023-03-25T15:31:29;99479.00;;;14.70;46.37
56604;BME280;42486;47.478;19.036;2023-03-25T15:38:42;99492.69;;;14.82;47.89
56604;BME280;42486;47.478;19.036;2023-03-25T15:51:40;99481.31;;;14.81;47.99
56604;BME280;42486;47.478;19.036;2023-03-25T15:58:01;99477.91;;;14.46;47.92
56604;BME280;42486;47.478;19.036;2023-03-25T16:01:13;99465.16;;;14.17;47.16
56604;BME280;42486;47.478;19.036;2023-03-25T16:08:43;99474.75;;;13.92;47.78
56604;BME280;42486;47.478;19.036;2023-03-25T16:11:26;99471.44;;;13.90;49.17
56604;BME280;42486;47.478;19.036;2023-03-25T16:14:31;99471.75;;;13.87;46.83
56604;BME280;42486;47.478;19.036;2023-03-25T16:17:34;99471.41;;;13.82;47.79
56604;BME280;42486;47.478;19.036;2023-03-25T16:20:37;99476.81;;;13.80;47.69
56604;BME280;42486;47.478;19.036;2023-03-25T16:23:40;99473.66;;;13.77;47.74
56604;BME280;42486;47.478;19.036;2023-03-25T16:26:44;99467.69;;;13.66;49.49
56604;BME280;42486;47.478;19.036;2023-03-25T16:29:50;99472.25;;;13.56;47.67
56604;BME280;42486;47.478;19.036;2023-03-25T16:36:15;99483.78;;;13.46;47.68
56604;BME280;42486;47.478;19.036;2023-03-25T16:39:20;99489.13;;;13.36;48.24
56604;BME280;42486;47.478;19.036;2023-03-25T16:42:31;99483.84;;;13.28;47.99
56604;BME280;42486;47.478;19.036;2023-03-25T16:45:35;99481.94;;;13.20;47.25
56604;BME280;42486;47.478;19.036;2023-03-25T16:48:39;99483.34;;;13.14;49.39
56604;BME280;42486;47.478;19.036;2023-03-25T16:51:43;99494.72;;;13.05;49.02
56604;BME280;42486;47.478;19.036;2023-03-25T16:55:10;99497.59;;;12.94;48.73
56604;BME280;42486;47.478;19.036;2023-03-25T16:58:14;99493.25;;;12.85;49.19
56604;BME280;42486;47.478;19.036;2023-03-25T17:01:18;99505.03;;;12.71;49.44
56604;BME280;42486;47.478;19.036;2023-03-25T17:04:24;99497.25;;;12.61;50.93
56604;BME280;42486;47.478;19.036;2023-03-25T17:07:31;99497.81;;;12.55;51.30
56604;BME280;42486;47.478;19.036;2023-03-25T17:10:47;99492.97;;;12.42;51.15
56604;BME280;42486;47.478;19.036;2023-03-25T17:13:52;99499.06;;;12.33;50.99
56604;BME280;42486;47.478;19.036;2023-03-25T17:16:57;99488.63;;;12.23;52.52
56604;BME280;42486;47.478;19.036;2023-03-25T17:20:05;99489.50;;;12.14;52.50
56604;BME280;42486;47.478;19.036;2023-03-25T17:26:19;99499.75;;;11.98;53.26
56604;BME280;42486;47.478;19.036;2023-03-25T17:29:24;99503.63;;;11.84;54.28
56604;BME280;42486;47.478;19.036;2023-03-25T17:32:27;99495.22;;;11.80;54.44
56604;BME280;42486;47.478;19.036;2023-03-25T17:35:30;99493.47;;;11.71;54.34
56604;BME280;42486;47.478;19.036;2023-03-25T17:38:43;99496.09;;;11.61;55.51
56604;BME280;42486;47.478;19.036;2023-03-25T17:41:46;99507.13;;;11.55;54.98
56604;BME280;42486;47.478;19.036;2023-03-25T17:44:51;99509.62;;;11.47;55.28
56604;BME280;42486;47.478;19.036;2023-03-25T17:47:54;99511.94;;;11.40;56.34
56604;BME280;42486;47.478;19.036;2023-03-25T17:50:58;99514.03;;;11.37;56.28
56604;BME280;42486;47.478;19.036;2023-03-25T17:54:00;99513.75;;;11.30;57.58
56604;BME280;42486;47.478;19.036;2023-03-25T17:57:08;99518.41;;;11.17;57.04
56604;BME280;42486;47.478;19.036;2023-03-25T18:00:15;99521.31;;;11.04;57.45
56604;BME280;42486;47.478;19.036;2023-03-25T18:03:22;99524.19;;;10.91;58.08
56604;BME280;42486;47.478;19.036;2023-03-25T18:06:26;99519.63;;;10.84;58.60
56604;BME280;42486;47.478;19.036;2023-03-25T18:09:29;99525.53;;;10.76;59.05
56604;BME280;42486;47.478;19.036;2023-03-25T18:12:32;99524.72;;;10.75;60.09
56604;BME280;42486;47.478;19.036;2023-03-25T18:15:34;99532.41;;;10.67;59.64
56604;BME280;42486;47.478;19.036;2023-03-25T18:18:41;99542.69;;;10.59;60.60
56604;BME280;42486;47.478;19.036;2023-03-25T18:21:44;99544.88;;;10.64;63.65
56604;BME280;42486;47.478;19.036;2023-03-25T18:24:46;99557.00;;;10.65;61.62
56604;BME280;42486;47.478;19.036;2023-03-25T18:27:49;99549.44;;;10.62;60.63
56604;BME280;42486;47.478;19.036;2023-03-25T18:30:54;99546.78;;;10.52;60.78
56604;BME280;42486;47.478;19.036;2023-03-25T18:33:57;99553.25;;;10.48;61.33
56604;BME280;42486;47.478;19.036;2023-03-25T18:37:00;99560.66;;;10.52;60.95
56604;BME280;42486;47.478;19.036;2023-03-25T18:40:14;99549.97;;;10.65;59.80
56604;BME280;42486;47.478;19.036;2023-03-25T18:43:16;99546.41;;;10.66;59.43
56604;BME280;42486;47.478;19.036;2023-03-25T18:46:20;99560.03;;;10.70;59.64